createdAt,value
2019-03-08T00:01:54.895Z,4.53
2019-03-08T00:12:00.134Z,4.20
2019-03-08T00:22:08.705Z,3.70
2019-03-08T00:32:14.306Z,3.87
2019-03-08T00:42:19.283Z,4.00
2019-03-08T00:52:24.166Z,5.20
2019-03-08T01:02:29.049Z,4.30
2019-03-08T01:12:33.941Z,4.13
2019-03-08T01:22:39.105Z,3.30
2019-03-08T01:32:44.012Z,3.80
2019-03-08T01:42:48.874Z,3.70
2019-03-08T01:52:53.743Z,3.00
2019-03-08T02:02:58.612Z,3.47
2019-03-08T02:13:03.505Z,3.47
2019-03-08T02:23:08.662Z,3.57
2019-03-08T02:33:13.529Z,3.33
2019-03-08T02:43:18.891Z,2.90
2019-03-08T02:53:23.740Z,3.00
2019-03-08T03:03:28.594Z,3.47
2019-03-08T03:13:33.436Z,3.27
2019-03-08T03:23:38.606Z,3.10
2019-03-08T03:33:43.503Z,3.50
2019-03-08T03:43:48.384Z,2.07
2019-03-08T03:53:53.271Z,2.40
2019-03-08T04:03:58.168Z,4.90
2019-03-08T04:14:03.043Z,2.00
2019-03-08T04:24:07.916Z,2.22
2019-03-08T04:34:12.819Z,1.90
2019-03-08T04:44:17.705Z,2.00
2019-03-08T04:54:22.572Z,2.17
2019-03-08T05:04:27.448Z,1.80
2019-03-08T05:14:32.591Z,1.73
2019-03-08T05:24:37.493Z,1.90
2019-03-08T05:34:42.387Z,1.90
2019-03-08T05:44:47.282Z,1.37
2019-03-08T05:54:52.160Z,1.50
2019-03-08T06:04:57.107Z,2.93
2019-03-08T06:15:01.998Z,2.20
2019-03-08T06:25:07.379Z,2.60
2019-03-08T06:35:12.614Z,2.23
2019-03-08T06:45:18.303Z,2.73
2019-03-08T06:55:23.429Z,2.13
2019-03-08T07:05:28.459Z,5.27
2019-03-08T07:15:33.365Z,2.43
2019-03-08T07:25:58.023Z,2.37
2019-03-08T07:36:13.054Z,2.10
2019-03-08T07:46:37.645Z,2.08
2019-03-08T07:56:44.074Z,1.45
2019-03-08T08:06:53.209Z,1.30
2019-03-08T08:17:15.536Z,1.62
2019-03-08T08:27:21.980Z,1.40
2019-03-08T08:37:37.478Z,1.07
2019-03-08T08:47:46.735Z,1.70
2019-03-08T08:58:09.249Z,1.17
2019-03-08T09:08:15.720Z,2.00
2019-03-08T09:18:34.056Z,1.62
2019-03-08T09:28:43.478Z,2.08
2019-03-08T09:38:50.324Z,1.20
2019-03-08T09:49:02.522Z,1.75
2019-03-08T09:59:25.114Z,0.88
2019-03-08T10:09:31.568Z,1.27
2019-03-08T10:19:43.717Z,1.12
2019-03-08T10:30:05.085Z,1.27
2019-03-08T10:50:33.810Z,0.80
2019-03-08T11:00:55.281Z,1.98
2019-03-08T11:11:16.648Z,1.00
2019-03-08T11:21:26.164Z,0.60
2019-03-08T11:31:35.621Z,0.90
2019-03-08T11:41:54.036Z,0.80
2019-03-08T11:52:12.226Z,1.64
2019-03-08T12:02:27.748Z,0.85
2019-03-08T12:12:34.184Z,0.70
2019-03-08T12:22:40.651Z,1.03
2019-03-08T12:32:53.237Z,1.23
2019-03-08T12:43:07.584Z,1.40
2019-03-08T12:53:11.732Z,1.17
2019-03-08T13:03:30.224Z,1.70
2019-03-08T13:13:35.127Z,1.80
2019-03-08T13:23:40.019Z,13.70
2019-03-08T13:33:44.907Z,1.20
2019-03-08T13:43:49.793Z,1.30
2019-03-08T13:53:54.784Z,1.80
2019-03-08T14:03:59.736Z,2.23
2019-03-08T14:14:05.108Z,2.17
2019-03-08T14:24:11.000Z,2.17
2019-03-08T14:34:17.088Z,2.43
2019-03-08T14:44:45.977Z,2.87
2019-03-08T14:54:52.538Z,1.60
2019-03-08T15:04:57.629Z,1.50
2019-03-08T15:15:02.509Z,1.40
2019-03-08T15:25:12.677Z,2.50
2019-03-08T15:35:17.480Z,1.55
2019-03-08T15:45:24.929Z,2.00
2019-03-08T15:55:30.038Z,2.27
2019-03-08T16:05:35.132Z,2.20
2019-03-08T16:15:40.117Z,2.50
2019-03-08T16:36:43.122Z,2.93
2019-03-08T16:46:49.462Z,4.70
2019-03-08T16:56:55.931Z,2.23
2019-03-08T17:07:11.448Z,3.00
2019-03-08T17:17:17.889Z,2.60
2019-03-08T17:27:24.475Z,3.35
2019-03-08T17:37:30.967Z,4.00
2019-03-08T17:47:46.584Z,3.20
2019-03-08T17:58:04.765Z,2.73
2019-03-08T18:08:14.235Z,3.13
2019-03-08T18:18:20.690Z,4.45
2019-03-08T18:28:27.131Z,5.73
2019-03-08T18:38:42.836Z,0.97
2019-03-08T18:59:22.238Z,0.90
2019-03-08T19:09:31.901Z,1.07
2019-03-08T19:40:45.687Z,2.00
2019-03-08T19:51:08.742Z,2.33
2019-03-08T20:01:18.327Z,2.93
2019-03-08T20:11:30.960Z,5.53
2019-03-08T20:21:55.627Z,4.20
2019-03-08T20:32:11.098Z,4.57
2019-03-08T20:42:33.891Z,6.30
2019-03-08T20:52:38.992Z,4.83
2019-03-08T21:02:44.299Z,6.07
2019-03-08T21:12:49.616Z,7.07
2019-03-08T21:22:54.757Z,9.17
2019-03-08T21:32:59.959Z,11.77
2019-03-08T21:43:06.465Z,7.67
2019-03-08T21:53:11.550Z,8.18
2019-03-08T22:03:16.541Z,7.47
2019-03-08T22:13:21.650Z,9.20
2019-03-08T22:23:26.494Z,9.70
2019-03-08T22:33:31.411Z,9.90
2019-03-08T22:43:36.280Z,22.77
2019-03-08T22:53:41.227Z,48.83
2019-03-08T23:03:46.306Z,56.73
2019-03-08T23:13:51.471Z,14.93
2019-03-08T23:23:56.360Z,11.90
2019-03-08T23:34:02.910Z,15.20
2019-03-08T23:44:07.920Z,9.65
2019-03-08T23:54:12.824Z,9.37
